LEBL/BCN METAR and TAF weather

Enter ICAO airport designator
Station Type Date Time Source
LEBL METAR 2021/09/23 18:00 UTC NOAA

LEBL 231800Z 06011KT CAVOK 23/16 Q1018 NOSIG


Station Type Date Time Source
LEBL Decoded METAR 2021/09/23 18:00 UTC NOAA

Barcelona / Aeropuerto, Spain (LEBL) 41-17N 002-04E 6M
Sep 23, 2021 - 02:00 PM EDT / 2021.09.23 1800 UTC
Wind: from the ENE (060 degrees) at 13 MPH (11 KT):0
Visibility: greater than 7 mile(s):0
Temperature: 73 F (23 C)
Dew Point: 60 F (16 C)
Relative Humidity: 64%
Pressure (altimeter): 30.06 in. Hg (1018 hPa)
ob: LEBL 231800Z 06011KT CAVOK 23/16 Q1018 NOSIG
cycle: 18

Station Type Date Time Source
LEBL TAF 2021/09/23 18:27 UTC NOAA

TAF LEBL 231700Z 2318/2418 05010KT 9999 FEW030 TX26/2412Z TN20/2406Z
BECMG 2319/2322 36007KT
BECMG 2408/2411 07012KT

Example: see airport list